Tuesday, September 02, 2014
01:58 UTC
  |  Log In   |  Register Free
Airport Search:

Furnace Creek Airport
(L06)

Furnace Creek Airport Diagram
No Airport Diagram Available

FAA data valid effective July 24, 2014 until September 18, 2014 (unless otherwise noted).

 
 
 
 
 
 
 
 
 
 
 
 
 
 

Current Aviation Weather for Furnace Creek Airport (L06)

The most recent METAR observation for KINS was updated at: 2358 UTC
METAR Summary (Translated METAR)
KINS
012358Z AUTO 11012KT 10SM CLR 37/00 A2984 RMK AO2 SLP053 T03711004 10377 20323 57016 VISNO RWY08 $
KVGT
(32.3 nm SE from KINS)
012353Z 15011KT 10SM CLR 39/02 A2975 RMK AO2 SLP059 T03940022 10394 20328 56019
TAF Summary (Translated TAF)
KINS
2904/3009 24009KT 9999 SKC QNH2990INS TX37/2923Z TN15/2911Z COR 290437 LAST NO AMDS AFT 2907 NEXT 0211
KVGT
(32.3 nm SE from KINS)
011741Z 0118/0218 13009KT P6SM SKC FM020400 20009KT P6SM SKC FM020800 33006KT P6SM SKC
  Airport Weather Conditions for L06

Current weather conditions are
not available for L06


The nearest NOAA weather station
is at INS, (58.7 nm NE from L06)
  
 Current Weather at INS
98° F
Fair
Southeast winds at 13.8 mph
INS NOAA Radar

Pressure: 29.83 in
Humidity: 11%
Wind: Southeast at 13.8 MPH (12 KT)
Dew Point: 35.6°F
Visibility: 10.00 mi


Airport Weather Forecast for L06

Translated METAR and TAF for KINS
Translated METAR for KINS (0152 UTC 02 September 2014)
found at http://aviationweather.gov/adds/metars/
 
METAR text: KINS 020058Z AUTO 12012KT 10SM CLR 37/02 A2983 RMK AO2 SLP049 T03660020 VISNO RWY08 $
Conditions at: KINS (INDIAN SPRINGS , NV, US) observed 0058 UTC 02 September 2014
Temperature: 36.6°C (98°F)
Dewpoint: 2.0°C (36°F) [RH = 11%]
Pressure (altimeter): 29.83 inches Hg (1010.2 mb)
[Sea-level pressure: 1004.9 mb]
Winds: from the ESE (120 degrees) at 14 MPH (12 knots; 6.2 m/s)
Visibility: 10 or more miles (16+ km)
Ceiling: at least 12,000 feet AGL
Clouds: sky clear below 12,000 feet AGL
Weather:
SOME DATA ABOVE MAY BE INACCURATE!!!
"$" is an indication the sensor requires maintenance
Translated TAF for KINS

There is no translated TAF available for this airport

Find All Airport Services Find A Hotel Find A Rental Car Find A Golf Course Find A Restaurant $100 Hamburger



FBO's on the Field
FBO Company Facility Photos Services Transportation Aviation Fuel Prices: Prices include tax
Catering Weather Repair Courtesy Rental Type 100LL JetA JetA+ MOGAS 8087
 
Add another FBO Facility Photos Catering Weather Repair Courtesy Rental Type 100LL JetA JetA+ MOGAS 8087
Services Transportation Aviation Fuel Prices: Prices include tax
There are no FBO's currently reporting fuel at L06. List your FBO now


GlobalAir.com Airport Resource Center model-print
model-print
model-print
model-print